createdAt,value
2022-10-01T00:00:01.388Z,7.55
2022-10-01T00:02:03.026Z,7.38
2022-10-01T00:04:04.625Z,6.72
2022-10-01T00:06:09.185Z,6.97
2022-10-01T00:08:11.344Z,7.25
2022-10-01T00:10:14.381Z,7.95
2022-10-01T00:12:16.769Z,7.95
2022-10-01T00:14:19.059Z,7.32
2022-10-01T00:16:23.448Z,7.75
2022-10-01T00:18:25.364Z,7.43
2022-10-01T00:20:27.124Z,7.25
2022-10-01T00:22:32.325Z,7.80
2022-10-01T00:24:34.070Z,7.50
2022-10-01T00:26:37.218Z,6.72
2022-10-01T00:28:38.854Z,6.45
2022-10-01T00:30:47.088Z,6.32
2022-10-01T00:32:48.722Z,6.00
2022-10-01T00:34:50.321Z,5.75
2022-10-01T00:36:52.019Z,5.63
2022-10-01T00:38:53.703Z,6.15
2022-10-01T00:40:55.785Z,6.85
2022-10-01T00:42:57.506Z,6.60
2022-10-01T00:45:01.651Z,6.35
2022-10-01T00:47:31.822Z,6.88
2022-10-01T00:49:35.171Z,7.43
2022-10-01T00:51:42.434Z,7.80
2022-10-01T00:53:44.939Z,6.68
2022-10-01T00:55:55.498Z,6.60
2022-10-01T00:57:57.478Z,6.53
2022-10-01T01:00:04.225Z,6.13
2022-10-01T01:02:06.015Z,7.10
2022-10-01T01:04:16.813Z,6.63
2022-10-01T01:06:18.606Z,6.55
2022-10-01T01:08:20.747Z,6.35
2022-10-01T01:10:33.665Z,6.10
2022-10-01T01:12:50.400Z,6.85
2022-10-01T01:15:16.120Z,6.40
2022-10-01T01:17:25.128Z,6.82
2022-10-01T01:19:35.502Z,6.80
2022-10-01T01:21:42.892Z,6.50
2022-10-01T01:24:04.865Z,6.20
2022-10-01T01:26:29.458Z,7.10
2022-10-01T01:28:34.077Z,6.60
2022-10-01T01:30:38.555Z,7.30
2022-10-01T01:33:03.223Z,6.43
2022-10-01T01:35:07.960Z,6.47
2022-10-01T01:37:12.752Z,6.78
2022-10-01T01:39:16.372Z,6.68
2022-10-01T01:41:20.538Z,6.60
2022-10-01T01:43:30.025Z,7.15
2022-10-01T01:45:34.020Z,7.10
2022-10-01T01:47:38.441Z,6.80
2022-10-01T01:49:41.331Z,7.13
2022-10-01T01:52:04.561Z,7.30
2022-10-01T01:54:06.385Z,7.00
2022-10-01T01:56:08.134Z,7.05
2022-10-01T01:58:09.785Z,6.55
2022-10-01T02:00:13.042Z,7.07
2022-10-01T02:02:29.504Z,6.50
2022-10-01T02:04:45.391Z,7.25
2022-10-01T02:06:59.113Z,7.18
2022-10-01T02:09:11.509Z,7.63
2022-10-01T02:11:21.894Z,7.70
2022-10-01T02:13:29.596Z,7.30
2022-10-01T02:15:37.170Z,7.38
2022-10-01T02:17:52.425Z,8.10
2022-10-01T02:19:56.236Z,7.35
2022-10-01T02:24:26.848Z,6.55
2022-10-01T02:26:29.571Z,5.82
2022-10-01T02:28:33.420Z,6.55
2022-10-01T02:30:35.727Z,7.15
2022-10-01T02:32:40.166Z,6.40
2022-10-01T02:34:42.351Z,6.15
2022-10-01T02:36:45.313Z,5.10
2022-10-01T02:38:48.357Z,5.20
2022-10-01T02:40:53.650Z,6.20
2022-10-01T02:42:58.415Z,5.70
2022-10-01T02:45:04.388Z,6.20
2022-10-01T02:47:18.274Z,6.07
2022-10-01T02:49:20.282Z,5.70
2022-10-01T02:51:42.089Z,6.15
2022-10-01T02:53:49.466Z,6.50
2022-10-01T02:55:52.133Z,6.22
2022-10-01T02:57:53.969Z,5.88
2022-10-01T03:00:08.727Z,6.18
2022-10-01T03:02:10.445Z,6.00
2022-10-01T03:04:13.488Z,5.97
2022-10-01T03:06:15.103Z,9.93
2022-10-01T03:08:16.836Z,7.35
2022-10-01T03:10:18.823Z,5.43
2022-10-01T03:12:20.537Z,6.80
2022-10-01T03:14:22.184Z,6.20
2022-10-01T03:16:24.111Z,6.22
2022-10-01T03:18:25.837Z,6.28
2022-10-01T03:20:27.585Z,6.43
2022-10-01T03:22:29.176Z,6.57
2022-10-01T03:24:30.827Z,6.82
2022-10-01T03:26:33.164Z,6.30
2022-10-01T03:28:34.746Z,6.68
2022-10-01T03:30:36.405Z,6.80
2022-10-01T03:32:38.434Z,5.93
2022-10-01T03:34:40.378Z,6.43
2022-10-01T03:36:42.005Z,6.22
2022-10-01T03:38:43.720Z,6.45
2022-10-01T03:40:46.324Z,6.10
2022-10-01T03:42:47.980Z,6.70
2022-10-01T03:44:49.734Z,6.28
2022-10-01T03:46:51.864Z,5.93
2022-10-01T03:48:53.524Z,6.85
2022-10-01T03:50:57.137Z,7.47
2022-10-01T03:52:59.441Z,6.80
2022-10-01T03:55:01.112Z,6.60
2022-10-01T03:57:03.348Z,7.32
2022-10-01T03:59:04.963Z,7.93
2022-10-01T04:01:06.677Z,7.53
2022-10-01T04:03:08.466Z,7.45
2022-10-01T04:05:10.301Z,7.28
2022-10-01T04:07:11.881Z,7.43
2022-10-01T04:09:13.604Z,7.18
2022-10-01T04:11:15.324Z,7.60
2022-10-01T04:13:17.128Z,7.38
2022-10-01T04:15:18.934Z,6.97
2022-10-01T04:17:20.815Z,7.35
2022-10-01T04:19:22.474Z,8.07
2022-10-01T04:21:24.129Z,7.75
2022-10-01T04:23:26.177Z,6.75
2022-10-01T04:25:28.644Z,7.03
2022-10-01T04:27:30.353Z,7.82
2022-10-01T04:29:33.237Z,7.28
2022-10-01T04:31:37.170Z,7.38
2022-10-01T04:33:39.306Z,6.95
2022-10-01T04:35:41.386Z,8.00
2022-10-01T04:37:43.038Z,7.60
2022-10-01T04:39:44.972Z,7.68
2022-10-01T04:41:46.596Z,7.82
2022-10-01T04:43:48.419Z,7.13
2022-10-01T04:45:50.135Z,7.82
2022-10-01T04:47:54.037Z,7.25
2022-10-01T04:49:55.631Z,7.20
2022-10-01T04:51:57.436Z,7.15
2022-10-01T04:53:59.092Z,8.02
2022-10-01T04:56:00.842Z,7.15
2022-10-01T04:58:03.098Z,7.70
2022-10-01T05:00:06.436Z,7.25
2022-10-01T05:02:08.119Z,7.50
2022-10-01T05:04:10.147Z,7.88
2022-10-01T05:06:11.748Z,7.32
2022-10-01T05:08:13.523Z,7.20
2022-10-01T05:10:18.160Z,7.22
2022-10-01T05:12:24.336Z,7.93
2022-10-01T05:14:26.813Z,7.72
2022-10-01T05:16:28.522Z,6.78
2022-10-01T05:18:30.434Z,7.55
2022-10-01T05:20:34.076Z,7.68
2022-10-01T05:22:35.955Z,7.97
2022-10-01T05:24:37.766Z,7.15
2022-10-01T05:26:39.489Z,6.97
2022-10-01T05:28:44.505Z,6.80
2022-10-01T05:30:46.253Z,7.75
2022-10-01T05:32:56.445Z,7.90
2022-10-01T05:34:58.351Z,12.32
2022-10-01T05:37:00.847Z,10.65
2022-10-01T05:39:02.604Z,8.00
2022-10-01T05:41:05.376Z,8.93
2022-10-01T05:43:06.963Z,8.48
2022-10-01T05:45:10.151Z,8.52
2022-10-01T05:47:16.267Z,8.95
2022-10-01T05:49:17.826Z,8.45
2022-10-01T05:51:19.571Z,7.70
2022-10-01T05:53:22.516Z,8.00
2022-10-01T05:55:24.570Z,8.10
2022-10-01T05:57:26.237Z,8.30
2022-10-01T05:59:31.723Z,7.72
2022-10-01T06:01:33.971Z,8.23
2022-10-01T06:03:36.174Z,7.95
2022-10-01T06:05:38.564Z,7.93
2022-10-01T06:07:40.246Z,8.45
2022-10-01T06:09:41.906Z,8.40
2022-10-01T06:11:43.644Z,7.95
2022-10-01T06:13:45.736Z,7.90
2022-10-01T06:15:47.465Z,7.20
2022-10-01T06:17:49.238Z,9.77
2022-10-01T06:19:51.645Z,8.45
2022-10-01T06:21:53.242Z,9.10
2022-10-01T06:23:55.350Z,8.80
2022-10-01T06:25:59.782Z,10.15
2022-10-01T06:28:02.260Z,9.18
2022-10-01T06:30:05.629Z,9.63
2022-10-01T06:32:08.058Z,9.93
2022-10-01T06:34:09.740Z,9.38
2022-10-01T06:36:11.680Z,9.70
2022-10-01T06:38:13.812Z,9.45
2022-10-01T06:40:15.552Z,10.07
2022-10-01T06:42:17.212Z,8.70
2022-10-01T06:44:20.635Z,9.48
2022-10-01T06:46:22.336Z,9.52
2022-10-01T06:48:24.239Z,9.32
2022-10-01T06:50:26.251Z,10.57
2022-10-01T06:52:46.555Z,8.70
2022-10-01T06:54:48.294Z,10.43
2022-10-01T06:56:50.021Z,9.63
2022-10-01T06:58:51.605Z,8.95
2022-10-01T07:00:59.098Z,10.10
2022-10-01T07:03:01.124Z,9.32
2022-10-01T07:05:02.787Z,9.93
2022-10-01T07:07:04.446Z,9.32
2022-10-01T07:09:06.091Z,10.07
2022-10-01T07:11:07.796Z,10.10
2022-10-01T07:13:20.413Z,9.07
2022-10-01T07:15:25.690Z,8.52
2022-10-01T07:17:27.399Z,8.95
2022-10-01T07:19:29.199Z,8.52
2022-10-01T07:21:30.966Z,7.70
2022-10-01T07:23:32.602Z,9.25
2022-10-01T07:25:34.374Z,8.90
2022-10-01T07:27:37.155Z,8.63
2022-10-01T07:29:38.787Z,7.43
2022-10-01T07:31:40.411Z,8.07
2022-10-01T07:33:42.211Z,7.50
2022-10-01T07:35:43.847Z,6.95
2022-10-01T07:37:46.265Z,7.10
2022-10-01T07:39:47.931Z,6.15
2022-10-01T07:41:51.583Z,6.57
2022-10-01T07:45:58.360Z,5.45
2022-10-01T07:48:02.135Z,5.57
2022-10-01T07:50:04.388Z,5.53
2022-10-01T07:52:10.948Z,5.85
2022-10-01T07:54:14.737Z,6.35
2022-10-01T07:56:16.543Z,6.18
2022-10-01T07:58:18.890Z,5.45
2022-10-01T08:00:21.258Z,5.78
2022-10-01T08:02:23.014Z,5.65
2022-10-01T08:04:43.682Z,6.10
2022-10-01T08:06:47.365Z,5.97
2022-10-01T08:10:50.953Z,6.38
2022-10-01T08:12:52.999Z,6.13
2022-10-01T08:14:54.629Z,5.72
2022-10-01T08:16:56.644Z,5.18
2022-10-01T08:18:58.338Z,5.93
2022-10-01T08:21:02.210Z,5.32
2022-10-01T08:23:05.217Z,5.65
2022-10-01T08:25:07.395Z,6.30
2022-10-01T08:27:09.004Z,5.97
2022-10-01T08:29:14.836Z,6.10
2022-10-01T08:31:18.560Z,5.82
2022-10-01T08:33:20.528Z,5.65
2022-10-01T08:35:23.294Z,6.00
2022-10-01T08:37:27.189Z,5.83
2022-10-01T08:39:28.860Z,5.82
2022-10-01T08:41:41.541Z,6.32
2022-10-01T08:43:43.760Z,5.75
2022-10-01T08:45:49.247Z,5.97
2022-10-01T08:48:13.014Z,5.45
2022-10-01T08:50:23.547Z,6.35
2022-10-01T08:52:27.141Z,6.47
2022-10-01T08:56:44.465Z,5.97
2022-10-01T08:58:49.072Z,7.10
2022-10-01T09:00:51.133Z,6.90
2022-10-01T09:02:53.052Z,6.25
2022-10-01T09:05:01.279Z,7.10
2022-10-01T09:07:36.921Z,8.13
2022-10-01T09:09:45.661Z,7.07
2022-10-01T09:12:24.898Z,6.28
2022-10-01T09:15:09.438Z,6.18
2022-10-01T09:17:17.461Z,6.63
2022-10-01T09:19:55.061Z,6.13
2022-10-01T09:22:03.498Z,6.00
2022-10-01T09:24:15.511Z,9.35
2022-10-01T09:26:17.195Z,7.15
2022-10-01T09:28:24.042Z,7.38
2022-10-01T09:30:26.333Z,7.30
2022-10-01T09:32:33.386Z,7.03
2022-10-01T09:34:40.389Z,8.68
2022-10-01T09:37:03.712Z,8.82
2022-10-01T09:39:21.883Z,8.68
2022-10-01T09:41:23.741Z,8.80
2022-10-01T09:43:37.959Z,9.35
2022-10-01T09:45:39.920Z,9.93
2022-10-01T09:47:44.425Z,8.80
2022-10-01T09:49:46.319Z,9.00
2022-10-01T09:51:57.944Z,8.98
2022-10-01T09:54:03.562Z,7.90
2022-10-01T09:56:11.548Z,8.98
2022-10-01T09:58:16.809Z,9.25
2022-10-01T10:00:23.874Z,7.95
2022-10-01T10:02:35.550Z,7.65
2022-10-01T10:04:37.442Z,7.88
2022-10-01T10:06:39.402Z,6.72
2022-10-01T10:08:45.758Z,8.23
2022-10-01T10:11:09.086Z,7.65
2022-10-01T10:13:14.759Z,6.78
2022-10-01T10:15:19.408Z,7.00
2022-10-01T10:17:22.211Z,8.05
2022-10-01T10:19:27.010Z,7.17
2022-10-01T10:21:36.680Z,7.10
2022-10-01T10:23:50.383Z,7.50
2022-10-01T10:26:02.782Z,7.30
2022-10-01T10:28:05.254Z,7.93
2022-10-01T10:30:14.973Z,7.15
2022-10-01T10:32:25.455Z,7.63
2022-10-01T10:34:35.818Z,7.57
2022-10-01T10:36:38.115Z,7.32
2022-10-01T10:38:40.045Z,7.65
2022-10-01T10:40:43.564Z,9.07
2022-10-01T10:42:53.638Z,9.07
2022-10-01T10:44:57.130Z,7.35
2022-10-01T10:47:03.419Z,7.70
2022-10-01T10:49:30.182Z,7.45
2022-10-01T10:51:54.089Z,7.78
2022-10-01T10:53:55.934Z,7.53
2022-10-01T10:56:05.313Z,7.30
2022-10-01T10:58:11.238Z,7.22
2022-10-01T11:00:18.948Z,8.13
2022-10-01T11:02:21.447Z,8.13
2022-10-01T11:04:38.199Z,7.85
2022-10-01T11:06:40.155Z,7.82
2022-10-01T11:08:42.923Z,8.27
2022-10-01T11:10:44.517Z,8.37
2022-10-01T11:12:56.738Z,7.80
2022-10-01T11:15:06.811Z,8.18
2022-10-01T11:17:14.302Z,8.18
2022-10-01T11:19:27.834Z,7.70
2022-10-01T11:21:41.832Z,8.05
2022-10-01T11:26:13.146Z,7.88
2022-10-01T11:28:33.336Z,7.60
2022-10-01T11:30:37.783Z,8.35
2022-10-01T11:32:45.636Z,8.75
2022-10-01T11:35:34.395Z,7.95
2022-10-01T11:37:50.291Z,7.13
2022-10-01T11:39:53.503Z,8.90
2022-10-01T11:42:00.697Z,7.80
2022-10-01T11:44:15.582Z,7.80
2022-10-01T11:46:34.860Z,7.00
2022-10-01T11:48:46.512Z,7.70
2022-10-01T11:50:49.396Z,7.63
2022-10-01T11:52:58.608Z,8.82
2022-10-01T11:55:24.879Z,8.98
2022-10-01T11:57:45.675Z,8.25
2022-10-01T11:59:52.639Z,8.15
2022-10-01T12:02:32.599Z,7.43
2022-10-01T12:04:49.730Z,7.50
2022-10-01T12:06:51.360Z,8.02
2022-10-01T12:09:18.860Z,7.00
2022-10-01T12:11:32.163Z,6.25
2022-10-01T12:13:41.633Z,6.45
2022-10-01T12:16:03.562Z,6.90
2022-10-01T12:18:27.333Z,6.05
2022-10-01T12:20:35.582Z,6.13
2022-10-01T12:22:38.619Z,6.60
2022-10-01T12:24:45.040Z,6.50
2022-10-01T12:26:53.833Z,5.70
2022-10-01T12:29:00.500Z,6.53
2022-10-01T12:31:09.517Z,6.05
2022-10-01T12:33:36.121Z,5.68
2022-10-01T12:35:56.359Z,5.78
2022-10-01T12:38:19.807Z,5.40
2022-10-01T12:40:39.164Z,5.73
2022-10-01T12:43:18.156Z,5.60
2022-10-01T12:45:37.151Z,6.10
2022-10-01T12:48:00.939Z,6.30
2022-10-01T12:50:37.953Z,5.43
2022-10-01T12:52:48.546Z,5.60
2022-10-01T12:55:14.149Z,6.20
2022-10-01T12:57:23.308Z,5.32
2022-10-01T12:59:34.451Z,13.88
2022-10-01T13:01:48.087Z,6.82
2022-10-01T13:04:17.599Z,6.50
2022-10-01T13:06:38.191Z,5.65
2022-10-01T13:08:48.794Z,5.43
2022-10-01T13:11:08.672Z,5.50
2022-10-01T13:13:21.555Z,5.95
2022-10-01T13:15:34.664Z,5.93
2022-10-01T13:17:43.708Z,5.57
2022-10-01T13:19:45.267Z,5.10
2022-10-01T13:21:57.812Z,4.75
2022-10-01T13:24:10.076Z,4.88
2022-10-01T13:26:18.776Z,5.10
2022-10-01T13:28:46.962Z,4.47
2022-10-01T13:30:59.349Z,5.00
2022-10-01T13:33:01.365Z,5.25
2022-10-01T13:35:39.727Z,6.28
2022-10-01T13:37:41.598Z,6.05
2022-10-01T13:39:45.009Z,6.03
2022-10-01T13:41:46.653Z,5.63
2022-10-01T13:43:56.923Z,6.22
2022-10-01T13:46:06.377Z,5.28
2022-10-01T13:48:10.685Z,6.10
2022-10-01T13:50:26.652Z,5.93
2022-10-01T13:52:28.396Z,6.05
2022-10-01T13:54:39.912Z,6.05
2022-10-01T13:56:41.625Z,5.28
2022-10-01T13:58:46.791Z,4.95
2022-10-01T14:00:55.489Z,5.03
2022-10-01T14:03:36.909Z,5.40
2022-10-01T14:05:40.067Z,4.78
2022-10-01T14:07:42.321Z,4.40
2022-10-01T14:09:50.746Z,4.78
2022-10-01T14:12:24.645Z,4.60
2022-10-01T14:14:54.133Z,5.72
2022-10-01T14:16:56.626Z,6.43
2022-10-01T14:18:58.351Z,5.30
2022-10-01T14:21:14.375Z,4.88
2022-10-01T14:23:16.682Z,4.80
2022-10-01T14:25:29.993Z,4.65
2022-10-01T14:27:31.732Z,4.03
2022-10-01T14:30:20.472Z,3.70
2022-10-01T14:32:24.723Z,4.15
2022-10-01T14:35:02.010Z,4.28
2022-10-01T14:37:06.541Z,4.18
2022-10-01T14:39:17.109Z,5.00
2022-10-01T14:41:20.461Z,4.82
2022-10-01T14:43:30.519Z,4.07
2022-10-01T14:45:32.109Z,4.22
2022-10-01T14:47:36.087Z,4.40
2022-10-01T14:49:37.664Z,4.50
2022-10-01T14:51:50.926Z,4.65
2022-10-01T14:53:53.909Z,5.15
2022-10-01T14:56:07.909Z,4.47
2022-10-01T14:58:25.808Z,4.22
2022-10-01T15:00:29.421Z,5.53
2022-10-01T15:04:32.534Z,6.57
2022-10-01T15:06:42.157Z,6.22
2022-10-01T15:08:48.854Z,4.75
2022-10-01T15:10:57.779Z,4.90
2022-10-01T15:12:59.395Z,4.38
2022-10-01T15:15:02.047Z,5.00
2022-10-01T15:17:07.327Z,5.13
2022-10-01T15:19:12.272Z,4.60
2022-10-01T15:21:25.033Z,5.88
2022-10-01T15:23:28.887Z,5.68
2022-10-01T15:25:31.719Z,5.95
2022-10-01T15:27:33.685Z,6.50
2022-10-01T15:29:36.103Z,6.07
2022-10-01T15:31:38.443Z,7.43
2022-10-01T15:33:41.121Z,7.38
2022-10-01T15:35:42.776Z,7.80
2022-10-01T15:37:49.427Z,7.05
2022-10-01T15:39:52.547Z,7.38
2022-10-01T15:41:54.881Z,8.02
2022-10-01T15:43:59.106Z,10.05
2022-10-01T15:46:26.813Z,7.45
2022-10-01T15:48:31.953Z,8.23
2022-10-01T15:50:36.635Z,8.13
2022-10-01T15:52:50.970Z,10.55
2022-10-01T15:54:59.745Z,8.55
2022-10-01T15:57:02.717Z,12.32
2022-10-01T15:59:12.605Z,10.18
2022-10-01T16:01:21.459Z,8.90
2022-10-01T16:03:27.375Z,8.77
2022-10-01T16:05:36.969Z,9.43
2022-10-01T16:07:40.374Z,8.15
2022-10-01T16:09:51.764Z,8.18
2022-10-01T16:11:55.263Z,9.30
2022-10-01T16:14:21.162Z,8.40
2022-10-01T16:16:28.626Z,10.73
2022-10-01T16:18:33.056Z,12.30
2022-10-01T16:20:36.506Z,13.07
2022-10-01T16:22:39.810Z,11.38
2022-10-01T16:24:44.051Z,12.70
2022-10-01T16:26:47.051Z,12.05
2022-10-01T16:28:53.886Z,11.38
2022-10-01T16:30:55.802Z,12.13
2022-10-01T16:33:02.453Z,11.18
2022-10-01T16:35:16.997Z,11.40
2022-10-01T16:37:18.856Z,11.35
2022-10-01T16:39:20.416Z,11.13
2022-10-01T16:41:25.126Z,11.48
2022-10-01T16:43:26.922Z,12.32
2022-10-01T16:45:33.559Z,15.48
2022-10-01T16:47:39.704Z,13.15
2022-10-01T16:49:43.257Z,17.25
2022-10-01T16:51:45.288Z,13.30
2022-10-01T16:53:47.115Z,13.90
2022-10-01T16:55:50.043Z,14.82
2022-10-01T16:57:54.782Z,14.15
2022-10-01T16:59:56.434Z,14.80
2022-10-01T17:01:58.383Z,15.20
2022-10-01T17:04:00.215Z,11.43
2022-10-01T17:06:02.549Z,14.82
2022-10-01T17:08:11.285Z,17.95
2022-10-01T17:10:14.045Z,16.50
2022-10-01T17:12:16.004Z,16.90
2022-10-01T17:14:18.694Z,14.38
2022-10-01T17:16:23.934Z,14.75
2022-10-01T17:18:26.371Z,13.48
2022-10-01T17:20:29.658Z,11.95
2022-10-01T17:22:32.681Z,11.48
2022-10-01T17:24:34.496Z,11.70
2022-10-01T17:26:38.453Z,11.15
2022-10-01T17:28:39.995Z,10.88
2022-10-01T17:30:43.361Z,15.77
2022-10-01T17:32:44.949Z,13.68
2022-10-01T17:34:46.492Z,13.82
2022-10-01T17:36:48.611Z,12.23
2022-10-01T17:38:50.189Z,11.88
2022-10-01T17:40:56.497Z,15.82
2022-10-01T17:42:58.521Z,10.80
2022-10-01T17:45:00.869Z,10.50
2022-10-01T17:47:02.562Z,14.10
2022-10-01T17:49:04.223Z,13.02
2022-10-01T17:51:08.506Z,12.27
2022-10-01T17:53:11.721Z,12.18
2022-10-01T17:55:13.388Z,12.25
2022-10-01T17:57:14.986Z,12.45
2022-10-01T17:59:16.913Z,13.05
2022-10-01T18:01:20.341Z,12.75
2022-10-01T18:03:22.093Z,12.95
2022-10-01T18:05:23.853Z,12.35
2022-10-01T18:07:26.354Z,13.60
2022-10-01T18:09:27.996Z,13.48
2022-10-01T18:11:29.846Z,14.18
2022-10-01T18:13:33.132Z,13.23
2022-10-01T18:15:34.708Z,14.13
2022-10-01T18:17:43.233Z,13.73
2022-10-01T18:19:55.809Z,13.48
2022-10-01T18:21:59.132Z,14.18
2022-10-01T18:24:04.415Z,15.90
2022-10-01T18:26:06.861Z,16.42
2022-10-01T18:28:08.605Z,16.10
2022-10-01T18:30:10.809Z,16.08
2022-10-01T18:32:31.630Z,16.67
2022-10-01T18:34:40.099Z,15.80
2022-10-01T18:36:59.074Z,16.92
2022-10-01T18:39:42.227Z,17.33
2022-10-01T18:41:44.256Z,16.25
2022-10-01T18:43:46.875Z,16.17
2022-10-01T18:45:48.621Z,17.45
2022-10-01T18:48:13.312Z,19.17
2022-10-01T18:50:48.897Z,21.40
2022-10-01T18:53:06.531Z,19.83
2022-10-01T18:55:25.458Z,18.15
2022-10-01T18:58:05.879Z,17.38
2022-10-01T19:00:16.813Z,15.27
2022-10-01T19:02:41.748Z,15.07
2022-10-01T19:04:51.076Z,14.63
2022-10-01T19:07:04.944Z,15.45
2022-10-01T19:09:12.300Z,13.23
2022-10-01T19:11:35.126Z,14.40
2022-10-01T19:13:53.835Z,14.35
2022-10-01T19:16:20.351Z,13.15
2022-10-01T19:18:31.340Z,13.10
2022-10-01T19:20:46.418Z,14.23
2022-10-01T19:23:12.952Z,12.38
2022-10-01T19:25:23.742Z,14.95
2022-10-01T19:27:28.060Z,14.90
2022-10-01T19:30:03.789Z,13.82
2022-10-01T19:32:13.060Z,15.70
2022-10-01T19:34:37.821Z,12.48
2022-10-01T19:36:44.901Z,11.82
2022-10-01T19:38:47.845Z,10.93
2022-10-01T19:41:43.450Z,9.18
2022-10-01T19:45:57.206Z,7.55
2022-10-01T19:48:09.955Z,6.20
2022-10-01T19:50:25.045Z,6.00
2022-10-01T19:52:38.344Z,6.82
2022-10-01T19:54:52.546Z,7.00
2022-10-01T19:56:59.829Z,6.15
2022-10-01T19:59:06.960Z,5.78
2022-10-01T20:01:12.509Z,6.25
2022-10-01T20:03:26.233Z,6.85
2022-10-01T20:05:30.167Z,6.82
2022-10-01T20:07:47.061Z,5.85
2022-10-01T20:09:54.298Z,6.18
2022-10-01T20:12:07.605Z,6.20
2022-10-01T20:14:46.668Z,6.20
2022-10-01T20:16:51.148Z,6.45
2022-10-01T20:19:14.090Z,5.78
2022-10-01T20:21:55.958Z,6.53
2022-10-01T20:24:00.381Z,6.30
2022-10-01T20:26:26.230Z,7.25
2022-10-01T20:28:32.863Z,7.20
2022-10-01T20:30:59.225Z,7.10
2022-10-01T20:33:10.362Z,6.85
2022-10-01T20:35:32.277Z,6.35
2022-10-01T20:37:52.458Z,6.80
2022-10-01T20:40:06.037Z,6.82
2022-10-01T20:42:16.293Z,7.28
2022-10-01T20:44:22.160Z,6.50
2022-10-01T20:46:41.117Z,7.75
2022-10-01T20:48:45.475Z,6.50
2022-10-01T20:50:51.169Z,6.53
2022-10-01T20:52:56.341Z,7.30
2022-10-01T20:55:04.217Z,7.38
2022-10-01T20:57:21.173Z,7.38
2022-10-01T20:59:30.816Z,7.70
2022-10-01T21:01:36.941Z,8.20
2022-10-01T21:03:44.383Z,7.00
2022-10-01T21:05:51.909Z,7.22
2022-10-01T21:07:58.069Z,6.90
2022-10-01T21:10:00.634Z,7.25
2022-10-01T21:12:11.876Z,7.28
2022-10-01T21:14:18.776Z,6.72
2022-10-01T21:16:26.652Z,7.05
2022-10-01T21:19:14.149Z,7.47
2022-10-01T21:21:34.418Z,7.68
2022-10-01T21:23:39.936Z,8.57
2022-10-01T21:25:50.553Z,8.18
2022-10-01T21:27:52.442Z,8.07
2022-10-01T21:30:04.827Z,8.77
2022-10-01T21:32:06.478Z,9.05
2022-10-01T21:34:13.958Z,9.02
2022-10-01T21:36:19.602Z,9.48
2022-10-01T21:38:39.229Z,10.52
2022-10-01T21:41:01.115Z,11.45
2022-10-01T21:43:05.951Z,11.75
2022-10-01T21:45:16.665Z,12.02
2022-10-01T21:47:30.323Z,12.95
2022-10-01T21:50:11.935Z,14.40
2022-10-01T21:52:19.506Z,14.20
2022-10-01T21:54:46.076Z,14.15
2022-10-01T21:57:29.817Z,12.45
2022-10-01T22:00:13.289Z,10.80
2022-10-01T22:02:29.988Z,10.75
2022-10-01T22:04:48.465Z,9.80
2022-10-01T22:06:58.418Z,9.93
2022-10-01T22:09:23.621Z,9.52
2022-10-01T22:11:33.085Z,9.55
2022-10-01T22:13:47.894Z,7.88
2022-10-01T22:15:52.698Z,8.45
2022-10-01T22:17:55.176Z,7.07
2022-10-01T22:19:57.993Z,7.75
2022-10-01T22:22:05.371Z,7.17
2022-10-01T22:24:13.243Z,7.45
2022-10-01T22:26:21.034Z,7.25
2022-10-01T22:28:39.756Z,6.78
2022-10-01T22:30:42.914Z,7.00
2022-10-01T22:32:53.812Z,6.40
2022-10-01T22:35:00.684Z,6.00
2022-10-01T22:37:05.841Z,5.07
2022-10-01T22:39:23.596Z,4.03
2022-10-01T22:41:31.288Z,4.70
2022-10-01T22:43:33.328Z,4.00
2022-10-01T22:45:45.853Z,3.72
2022-10-01T22:48:15.128Z,3.00
2022-10-01T22:50:31.833Z,3.17
2022-10-01T22:52:55.048Z,2.95
2022-10-01T22:55:05.513Z,2.90
2022-10-01T22:57:28.121Z,2.75
2022-10-01T22:59:55.390Z,2.75
2022-10-01T23:02:29.587Z,2.67
2022-10-01T23:04:46.410Z,2.65
2022-10-01T23:07:21.110Z,2.17
2022-10-01T23:09:28.925Z,2.00
2022-10-01T23:11:54.843Z,2.25
2022-10-01T23:14:02.308Z,2.40
2022-10-01T23:16:39.838Z,2.00
2022-10-01T23:18:47.572Z,1.98
2022-10-01T23:21:20.045Z,1.92
2022-10-01T23:23:21.639Z,1.55
2022-10-01T23:25:35.230Z,1.33
2022-10-01T23:27:37.017Z,1.42
2022-10-01T23:30:06.691Z,2.15
2022-10-01T23:32:45.748Z,1.52
2022-10-01T23:35:02.365Z,1.70
2022-10-01T23:37:27.034Z,2.00
2022-10-01T23:39:47.915Z,2.35
2022-10-01T23:41:55.354Z,2.05
2022-10-01T23:44:05.666Z,1.80
2022-10-01T23:46:22.864Z,1.73
2022-10-01T23:48:35.168Z,1.88
2022-10-01T23:50:36.779Z,2.03
2022-10-01T23:52:45.915Z,1.90
2022-10-01T23:54:52.320Z,1.92
2022-10-01T23:57:02.858Z,1.80
2022-10-01T23:59:31.139Z,1.77
